CheckWX is a tool to help pilots better visualize weather data.  It is not intended as a substitute for an official pre-flight weather briefing.

12:20:39 UTC

CYNE METAR
Norway House Airport
Norway House, Manitoba, Canada
Current

21 mins ago

CYNE 181200Z AUTO 33003KT 9SM CLR M33/M36 A3053 RMK SLP375
Observed
Feb-18 @ 12:00 UTC
Wind
  • 330° at 3 KTS
Visibility
9 SM
Flight Rules
VFR
Cloud Levels
  • Clear skies
Temperature
-33°C / -27°F
Dewpoint
-36°C / -33°F
Humidity
74%
Altimeter
30.53" Hg
Pressure
1037.5 hPa
Previous

1 hour ago

CYNE 181100Z AUTO 31002KT 9SM CLR M33/M36 A3053 RMK SLP373
Observed
Feb-18 @ 11:00 UTC
Wind
  • 310° at 2 KTS
Visibility
9 SM
Flight Rules
VFR
Cloud Levels
  • Clear skies
Temperature
-33°C / -27°F
Dewpoint
-36°C / -33°F
Humidity
74%
Altimeter
30.53" Hg
Pressure
1037.3 hPa
Previous

2 hours ago

CYNE 181000Z AUTO 30002KT 9SM CLR M32/M35 A3054 RMK SLP375
Observed
Feb-18 @ 10:00 UTC
Wind
  • 300° at 2 KTS
Visibility
9 SM
Flight Rules
VFR
Cloud Levels
  • Clear skies
Temperature
-32°C / -26°F
Dewpoint
-35°C / -31°F
Humidity
75%
Altimeter
30.54" Hg
Pressure
1037.5 hPa